sensor_id;sensor_type;location;lat;lon;timestamp;temperature;humidity
8684;DHT22;4379;59.744;18.206;2023-09-19T00:00:47;15.20;99.90
8684;DHT22;4379;59.744;18.206;2023-09-19T00:03:16;15.20;99.90
8684;DHT22;4379;59.744;18.206;2023-09-19T00:05:44;15.10;99.90
8684;DHT22;4379;59.744;18.206;2023-09-19T00:08:13;15.20;99.90
8684;DHT22;4379;59.744;18.206;2023-09-19T00:10:41;15.20;99.90
8684;DHT22;4379;59.744;18.206;2023-09-19T00:13:10;15.20;99.90
8684;DHT22;4379;59.744;18.206;2023-09-19T00:15:43;15.20;99.90
8684;DHT22;4379;59.744;18.206;2023-09-19T00:18:20;15.20;99.90
8684;DHT22;4379;59.744;18.206;2023-09-19T00:20:50;15.20;99.90
8684;DHT22;4379;59.744;18.206;2023-09-19T00:23:20;15.20;99.90
8684;DHT22;4379;59.744;18.206;2023-09-19T00:25:47;15.30;99.90
8684;DHT22;4379;59.744;18.206;2023-09-19T00:28:15;15.30;99.90
8684;DHT22;4379;59.744;18.206;2023-09-19T00:30:45;15.30;99.90
8684;DHT22;4379;59.744;18.206;2023-09-19T00:33:18;15.20;99.90
8684;DHT22;4379;59.744;18.206;2023-09-19T00:35:56;15.30;99.90
8684;DHT22;4379;59.744;18.206;2023-09-19T00:38:31;15.30;99.90
8684;DHT22;4379;59.744;18.206;2023-09-19T00:40:59;15.40;99.90
8684;DHT22;4379;59.744;18.206;2023-09-19T00:43:29;15.40;99.90
8684;DHT22;4379;59.744;18.206;2023-09-19T00:46:02;15.40;99.90
8684;DHT22;4379;59.744;18.206;2023-09-19T00:48:35;15.40;99.90
8684;DHT22;4379;59.744;18.206;2023-09-19T00:51:05;15.50;99.90
8684;DHT22;4379;59.744;18.206;2023-09-19T00:53:33;15.50;99.90
8684;DHT22;4379;59.744;18.206;2023-09-19T00:56:03;15.60;99.90
8684;DHT22;4379;59.744;18.206;2023-09-19T00:58:34;15.60;99.90
8684;DHT22;4379;59.744;18.206;2023-09-19T01:01:05;15.60;99.90
8684;DHT22;4379;59.744;18.206;2023-09-19T01:03:38;15.60;99.90
8684;DHT22;4379;59.744;18.206;2023-09-19T01:06:10;15.60;99.90
8684;DHT22;4379;59.744;18.206;2023-09-19T01:08:40;15.60;99.90
8684;DHT22;4379;59.744;18.206;2023-09-19T01:14:37;15.70;99.90
8684;DHT22;4379;59.744;18.206;2023-09-19T01:17:46;15.70;99.90
8684;DHT22;4379;59.744;18.206;2023-09-19T01:20:33;15.80;99.90
8684;DHT22;4379;59.744;18.206;2023-09-19T01:31:38;15.80;99.90
8684;DHT22;4379;59.744;18.206;2023-09-19T01:34:09;15.80;99.90
8684;DHT22;4379;59.744;18.206;2023-09-19T01:36:39;15.80;99.90
8684;DHT22;4379;59.744;18.206;2023-09-19T01:39:10;15.80;99.90
8684;DHT22;4379;59.744;18.206;2023-09-19T01:42:16;15.90;99.90
8684;DHT22;4379;59.744;18.206;2023-09-19T01:47:37;15.90;99.90
8684;DHT22;4379;59.744;18.206;2023-09-19T01:50:34;16.00;99.90
8684;DHT22;4379;59.744;18.206;2023-09-19T01:53:28;15.90;99.90
8684;DHT22;4379;59.744;18.206;2023-09-19T01:56:01;16.00;99.90
8684;DHT22;4379;59.744;18.206;2023-09-19T02:01:01;15.90;99.90
8684;DHT22;4379;59.744;18.206;2023-09-19T02:03:29;15.90;99.90
8684;DHT22;4379;59.744;18.206;2023-09-19T02:05:58;15.90;99.90
8684;DHT22;4379;59.744;18.206;2023-09-19T02:08:26;15.90;99.90
8684;DHT22;4379;59.744;18.206;2023-09-19T02:10:54;15.90;99.90
8684;DHT22;4379;59.744;18.206;2023-09-19T02:13:23;15.90;99.90
8684;DHT22;4379;59.744;18.206;2023-09-19T02:15:55;15.90;99.90
8684;DHT22;4379;59.744;18.206;2023-09-19T02:18:23;16.00;99.90
8684;DHT22;4379;59.744;18.206;2023-09-19T02:20:50;15.90;99.90
8684;DHT22;4379;59.744;18.206;2023-09-19T02:23:20;15.90;99.90
8684;DHT22;4379;59.744;18.206;2023-09-19T02:25:54;15.90;99.90
8684;DHT22;4379;59.744;18.206;2023-09-19T02:28:22;16.00;99.90
8684;DHT22;4379;59.744;18.206;2023-09-19T02:30:49;16.00;99.90
8684;DHT22;4379;59.744;18.206;2023-09-19T02:33:17;16.00;99.90
8684;DHT22;4379;59.744;18.206;2023-09-19T02:35:44;16.00;99.90
8684;DHT22;4379;59.744;18.206;2023-09-19T02:38:12;16.00;99.90
8684;DHT22;4379;59.744;18.206;2023-09-19T02:40:40;15.90;99.90
8684;DHT22;4379;59.744;18.206;2023-09-19T02:43:08;16.00;99.90
8684;DHT22;4379;59.744;18.206;2023-09-19T02:45:36;16.00;99.90
8684;DHT22;4379;59.744;18.206;2023-09-19T02:48:04;16.00;99.90
8684;DHT22;4379;59.744;18.206;2023-09-19T02:50:31;16.00;99.90
8684;DHT22;4379;59.744;18.206;2023-09-19T02:53:00;16.00;99.90
8684;DHT22;4379;59.744;18.206;2023-09-19T02:55:28;16.00;99.90
8684;DHT22;4379;59.744;18.206;2023-09-19T02:57:55;16.00;99.90
8684;DHT22;4379;59.744;18.206;2023-09-19T03:00:24;16.00;99.90
8684;DHT22;4379;59.744;18.206;2023-09-19T03:02:54;16.00;99.90
8684;DHT22;4379;59.744;18.206;2023-09-19T03:05:23;16.00;99.90
8684;DHT22;4379;59.744;18.206;2023-09-19T03:07:50;16.00;99.90
8684;DHT22;4379;59.744;18.206;2023-09-19T03:10:21;16.10;99.90
8684;DHT22;4379;59.744;18.206;2023-09-19T03:12:50;16.00;99.90
8684;DHT22;4379;59.744;18.206;2023-09-19T03:15:17;16.00;99.90
8684;DHT22;4379;59.744;18.206;2023-09-19T03:17:47;16.00;99.90
8684;DHT22;4379;59.744;18.206;2023-09-19T03:20:16;16.00;99.90
8684;DHT22;4379;59.744;18.206;2023-09-19T03:22:48;16.10;99.90
8684;DHT22;4379;59.744;18.206;2023-09-19T03:25:16;16.10;99.90
8684;DHT22;4379;59.744;18.206;2023-09-19T03:27:45;16.10;99.90
8684;DHT22;4379;59.744;18.206;2023-09-19T03:30:13;16.10;99.90
8684;DHT22;4379;59.744;18.206;2023-09-19T03:32:47;16.10;99.90
8684;DHT22;4379;59.744;18.206;2023-09-19T03:35:18;16.10;99.90
8684;DHT22;4379;59.744;18.206;2023-09-19T03:37:45;16.10;99.90
8684;DHT22;4379;59.744;18.206;2023-09-19T03:40:13;16.10;99.90
8684;DHT22;4379;59.744;18.206;2023-09-19T03:42:41;16.10;99.90
8684;DHT22;4379;59.744;18.206;2023-09-19T03:45:09;16.10;99.90
8684;DHT22;4379;59.744;18.206;2023-09-19T03:47:40;16.10;99.90
8684;DHT22;4379;59.744;18.206;2023-09-19T03:50:08;16.10;99.90
8684;DHT22;4379;59.744;18.206;2023-09-19T03:52:38;16.10;99.90
8684;DHT22;4379;59.744;18.206;2023-09-19T03:55:06;16.10;99.90
8684;DHT22;4379;59.744;18.206;2023-09-19T03:57:33;16.10;99.90
8684;DHT22;4379;59.744;18.206;2023-09-19T04:00:03;16.10;99.90
8684;DHT22;4379;59.744;18.206;2023-09-19T04:02:39;16.10;99.90
8684;DHT22;4379;59.744;18.206;2023-09-19T04:05:07;16.10;99.90
8684;DHT22;4379;59.744;18.206;2023-09-19T04:07:35;16.10;99.90
8684;DHT22;4379;59.744;18.206;2023-09-19T04:10:03;16.10;99.90
8684;DHT22;4379;59.744;18.206;2023-09-19T04:12:30;16.10;99.90
8684;DHT22;4379;59.744;18.206;2023-09-19T04:14:58;16.20;99.90
8684;DHT22;4379;59.744;18.206;2023-09-19T04:17:26;16.20;99.90
8684;DHT22;4379;59.744;18.206;2023-09-19T04:19:54;16.20;99.90
8684;DHT22;4379;59.744;18.206;2023-09-19T04:22:21;16.20;99.90
8684;DHT22;4379;59.744;18.206;2023-09-19T04:24:49;16.20;99.90
8684;DHT22;4379;59.744;18.206;2023-09-19T04:27:16;16.20;99.90
8684;DHT22;4379;59.744;18.206;2023-09-19T04:29:45;16.20;99.90
8684;DHT22;4379;59.744;18.206;2023-09-19T04:32:13;16.30;99.90
8684;DHT22;4379;59.744;18.206;2023-09-19T04:34:40;16.30;99.90
8684;DHT22;4379;59.744;18.206;2023-09-19T04:37:08;16.30;99.90
8684;DHT22;4379;59.744;18.206;2023-09-19T04:39:36;16.30;99.90
8684;DHT22;4379;59.744;18.206;2023-09-19T04:42:03;16.30;99.90
8684;DHT22;4379;59.744;18.206;2023-09-19T04:44:31;16.30;99.90
8684;DHT22;4379;59.744;18.206;2023-09-19T04:46:59;16.30;99.90
8684;DHT22;4379;59.744;18.206;2023-09-19T04:49:28;16.40;99.90
8684;DHT22;4379;59.744;18.206;2023-09-19T04:51:55;16.40;99.90
8684;DHT22;4379;59.744;18.206;2023-09-19T04:54:23;16.30;99.90
8684;DHT22;4379;59.744;18.206;2023-09-19T04:56:50;16.40;99.90
8684;DHT22;4379;59.744;18.206;2023-09-19T04:59:18;16.40;99.90
8684;DHT22;4379;59.744;18.206;2023-09-19T05:01:46;16.40;99.90
8684;DHT22;4379;59.744;18.206;2023-09-19T05:04:14;16.40;99.90
8684;DHT22;4379;59.744;18.206;2023-09-19T05:06:41;16.40;99.90
8684;DHT22;4379;59.744;18.206;2023-09-19T05:09:12;16.50;99.90
8684;DHT22;4379;59.744;18.206;2023-09-19T05:11:40;16.50;99.90
8684;DHT22;4379;59.744;18.206;2023-09-19T05:14:07;16.50;99.90
8684;DHT22;4379;59.744;18.206;2023-09-19T05:16:35;16.60;99.90
8684;DHT22;4379;59.744;18.206;2023-09-19T05:19:02;16.60;99.90
8684;DHT22;4379;59.744;18.206;2023-09-19T05:21:33;16.60;99.90
8684;DHT22;4379;59.744;18.206;2023-09-19T05:24:00;16.60;99.90
8684;DHT22;4379;59.744;18.206;2023-09-19T05:26:28;16.60;99.90
8684;DHT22;4379;59.744;18.206;2023-09-19T05:28:55;16.70;99.90
8684;DHT22;4379;59.744;18.206;2023-09-19T05:31:24;16.70;99.90
8684;DHT22;4379;59.744;18.206;2023-09-19T05:33:52;16.70;99.90
8684;DHT22;4379;59.744;18.206;2023-09-19T05:36:21;16.70;99.90
8684;DHT22;4379;59.744;18.206;2023-09-19T05:38:49;16.70;99.90
8684;DHT22;4379;59.744;18.206;2023-09-19T05:41:18;16.70;99.90
8684;DHT22;4379;59.744;18.206;2023-09-19T05:43:45;16.70;99.90
8684;DHT22;4379;59.744;18.206;2023-09-19T05:46:13;16.70;99.90
8684;DHT22;4379;59.744;18.206;2023-09-19T05:48:43;16.70;99.90
8684;DHT22;4379;59.744;18.206;2023-09-19T05:51:11;16.70;99.90
8684;DHT22;4379;59.744;18.206;2023-09-19T05:53:38;16.80;99.90
8684;DHT22;4379;59.744;18.206;2023-09-19T05:56:06;16.70;99.90
8684;DHT22;4379;59.744;18.206;2023-09-19T05:58:34;16.80;99.90
8684;DHT22;4379;59.744;18.206;2023-09-19T06:01:01;16.80;99.90
8684;DHT22;4379;59.744;18.206;2023-09-19T06:03:28;16.80;99.90
8684;DHT22;4379;59.744;18.206;2023-09-19T06:05:58;16.80;99.90
8684;DHT22;4379;59.744;18.206;2023-09-19T06:08:26;16.80;99.90
8684;DHT22;4379;59.744;18.206;2023-09-19T06:10:53;16.90;99.90
8684;DHT22;4379;59.744;18.206;2023-09-19T06:13:22;16.90;99.90
8684;DHT22;4379;59.744;18.206;2023-09-19T06:15:50;16.90;99.90
8684;DHT22;4379;59.744;18.206;2023-09-19T06:18:18;17.00;99.90
8684;DHT22;4379;59.744;18.206;2023-09-19T06:20:49;17.00;99.90
8684;DHT22;4379;59.744;18.206;2023-09-19T06:23:20;17.10;99.90
8684;DHT22;4379;59.744;18.206;2023-09-19T06:25:51;17.10;99.90
8684;DHT22;4379;59.744;18.206;2023-09-19T06:28:25;17.20;99.90
8684;DHT22;4379;59.744;18.206;2023-09-19T06:30:55;17.30;99.90
8684;DHT22;4379;59.744;18.206;2023-09-19T06:33:23;17.40;99.90
8684;DHT22;4379;59.744;18.206;2023-09-19T06:35:51;17.30;99.90
8684;DHT22;4379;59.744;18.206;2023-09-19T06:38:24;17.40;99.90
8684;DHT22;4379;59.744;18.206;2023-09-19T06:40:53;17.40;99.90
8684;DHT22;4379;59.744;18.206;2023-09-19T06:43:21;17.40;99.90
8684;DHT22;4379;59.744;18.206;2023-09-19T06:45:49;17.40;99.90
8684;DHT22;4379;59.744;18.206;2023-09-19T06:48:19;17.40;99.90
8684;DHT22;4379;59.744;18.206;2023-09-19T06:50:49;17.40;99.90
8684;DHT22;4379;59.744;18.206;2023-09-19T06:53:17;17.40;99.90
8684;DHT22;4379;59.744;18.206;2023-09-19T06:55:45;17.40;99.90
8684;DHT22;4379;59.744;18.206;2023-09-19T06:58:12;17.50;99.90
8684;DHT22;4379;59.744;18.206;2023-09-19T07:00:39;17.40;99.90
8684;DHT22;4379;59.744;18.206;2023-09-19T07:03:08;17.30;99.90
8684;DHT22;4379;59.744;18.206;2023-09-19T07:05:40;17.30;99.90
8684;DHT22;4379;59.744;18.206;2023-09-19T07:08:08;17.40;99.90
8684;DHT22;4379;59.744;18.206;2023-09-19T07:10:41;17.50;99.90
8684;DHT22;4379;59.744;18.206;2023-09-19T07:13:09;17.50;99.90
8684;DHT22;4379;59.744;18.206;2023-09-19T07:15:38;17.30;99.90
8684;DHT22;4379;59.744;18.206;2023-09-19T07:18:09;17.30;99.90
8684;DHT22;4379;59.744;18.206;2023-09-19T07:20:38;17.40;99.90
8684;DHT22;4379;59.744;18.206;2023-09-19T07:23:06;17.40;99.90
8684;DHT22;4379;59.744;18.206;2023-09-19T07:25:34;17.40;99.90
8684;DHT22;4379;59.744;18.206;2023-09-19T07:28:03;17.30;99.90
8684;DHT22;4379;59.744;18.206;2023-09-19T07:30:30;17.40;99.90
8684;DHT22;4379;59.744;18.206;2023-09-19T07:32:58;17.30;99.90
8684;DHT22;4379;59.744;18.206;2023-09-19T07:35:25;17.20;99.90
8684;DHT22;4379;59.744;18.206;2023-09-19T07:37:52;17.20;99.90
8684;DHT22;4379;59.744;18.206;2023-09-19T07:40:20;17.30;99.90
8684;DHT22;4379;59.744;18.206;2023-09-19T07:42:48;17.20;99.90
8684;DHT22;4379;59.744;18.206;2023-09-19T07:45:17;17.20;99.90
8684;DHT22;4379;59.744;18.206;2023-09-19T07:47:46;17.20;99.90
8684;DHT22;4379;59.744;18.206;2023-09-19T07:50:16;17.20;99.90
8684;DHT22;4379;59.744;18.206;2023-09-19T07:52:47;17.10;99.90
8684;DHT22;4379;59.744;18.206;2023-09-19T07:55:15;17.10;99.90
8684;DHT22;4379;59.744;18.206;2023-09-19T07:57:44;17.10;99.90
8684;DHT22;4379;59.744;18.206;2023-09-19T08:00:12;17.20;99.90
8684;DHT22;4379;59.744;18.206;2023-09-19T08:02:41;17.10;99.90
8684;DHT22;4379;59.744;18.206;2023-09-19T08:05:10;17.10;99.90
8684;DHT22;4379;59.744;18.206;2023-09-19T08:07:39;17.10;99.90
8684;DHT22;4379;59.744;18.206;2023-09-19T08:10:07;17.20;99.90
8684;DHT22;4379;59.744;18.206;2023-09-19T08:12:35;17.20;99.90
8684;DHT22;4379;59.744;18.206;2023-09-19T08:15:04;17.20;99.90
8684;DHT22;4379;59.744;18.206;2023-09-19T08:17:35;17.20;99.90
8684;DHT22;4379;59.744;18.206;2023-09-19T08:20:03;17.20;99.90
8684;DHT22;4379;59.744;18.206;2023-09-19T08:22:32;17.20;99.90
8684;DHT22;4379;59.744;18.206;2023-09-19T08:25:00;17.30;99.90
8684;DHT22;4379;59.744;18.206;2023-09-19T08:27:31;17.40;99.90
8684;DHT22;4379;59.744;18.206;2023-09-19T08:29:59;17.40;99.90
8684;DHT22;4379;59.744;18.206;2023-09-19T08:32:26;17.40;99.90
8684;DHT22;4379;59.744;18.206;2023-09-19T08:34:54;17.50;99.90
8684;DHT22;4379;59.744;18.206;2023-09-19T08:37:22;17.60;99.90
8684;DHT22;4379;59.744;18.206;2023-09-19T08:39:50;17.60;99.90
8684;DHT22;4379;59.744;18.206;2023-09-19T08:42:18;17.70;99.90
8684;DHT22;4379;59.744;18.206;2023-09-19T08:44:48;17.90;99.90
8684;DHT22;4379;59.744;18.206;2023-09-19T08:47:16;18.00;99.90
8684;DHT22;4379;59.744;18.206;2023-09-19T08:50:06;18.00;99.90
8684;DHT22;4379;59.744;18.206;2023-09-19T08:52:43;17.90;99.90
8684;DHT22;4379;59.744;18.206;2023-09-19T08:55:13;17.80;99.90
8684;DHT22;4379;59.744;18.206;2023-09-19T08:57:50;17.90;99.90
8684;DHT22;4379;59.744;18.206;2023-09-19T09:00:20;17.80;99.90
8684;DHT22;4379;59.744;18.206;2023-09-19T09:02:49;17.90;99.90
8684;DHT22;4379;59.744;18.206;2023-09-19T09:05:17;18.00;99.90
8684;DHT22;4379;59.744;18.206;2023-09-19T09:07:50;18.00;99.90
8684;DHT22;4379;59.744;18.206;2023-09-19T09:10:23;18.00;99.90
8684;DHT22;4379;59.744;18.206;2023-09-19T09:12:54;18.10;99.90
8684;DHT22;4379;59.744;18.206;2023-09-19T09:15:25;18.00;99.90
8684;DHT22;4379;59.744;18.206;2023-09-19T09:17:53;18.00;99.90
8684;DHT22;4379;59.744;18.206;2023-09-19T09:20:21;18.10;99.90
8684;DHT22;4379;59.744;18.206;2023-09-19T09:22:53;18.20;99.90
8684;DHT22;4379;59.744;18.206;2023-09-19T09:25:22;18.30;99.90
8684;DHT22;4379;59.744;18.206;2023-09-19T09:28:00;18.40;99.90
8684;DHT22;4379;59.744;18.206;2023-09-19T09:30:36;18.40;99.90
8684;DHT22;4379;59.744;18.206;2023-09-19T09:33:11;18.70;99.90
8684;DHT22;4379;59.744;18.206;2023-09-19T09:35:49;18.80;99.90
8684;DHT22;4379;59.744;18.206;2023-09-19T09:38:20;18.80;99.90
8684;DHT22;4379;59.744;18.206;2023-09-19T09:40:50;18.90;99.90
8684;DHT22;4379;59.744;18.206;2023-09-19T09:43:41;19.00;99.90
8684;DHT22;4379;59.744;18.206;2023-09-19T09:46:17;19.20;99.90
8684;DHT22;4379;59.744;18.206;2023-09-19T09:49:04;19.50;99.90
8684;DHT22;4379;59.744;18.206;2023-09-19T09:54:37;19.50;99.90
8684;DHT22;4379;59.744;18.206;2023-09-19T09:57:10;19.70;99.90
8684;DHT22;4379;59.744;18.206;2023-09-19T09:59:45;19.90;99.90
8684;DHT22;4379;59.744;18.206;2023-09-19T10:02:25;20.20;99.90
8684;DHT22;4379;59.744;18.206;2023-09-19T10:05:13;20.20;99.90
8684;DHT22;4379;59.744;18.206;2023-09-19T10:07:56;20.30;99.90
8684;DHT22;4379;59.744;18.206;2023-09-19T10:10:38;20.10;99.90
8684;DHT22;4379;59.744;18.206;2023-09-19T10:13:12;19.80;99.90
8684;DHT22;4379;59.744;18.206;2023-09-19T10:15:43;19.70;99.90
8684;DHT22;4379;59.744;18.206;2023-09-19T10:18:26;19.60;99.90
8684;DHT22;4379;59.744;18.206;2023-09-19T10:20:56;19.60;99.90
8684;DHT22;4379;59.744;18.206;2023-09-19T10:23:27;19.50;99.90
8684;DHT22;4379;59.744;18.206;2023-09-19T10:25:57;19.70;99.90
8684;DHT22;4379;59.744;18.206;2023-09-19T10:28:28;19.60;99.90
8684;DHT22;4379;59.744;18.206;2023-09-19T10:30:57;19.50;99.90
8684;DHT22;4379;59.744;18.206;2023-09-19T10:33:25;19.40;99.90
8684;DHT22;4379;59.744;18.206;2023-09-19T10:35:54;19.40;99.90
8684;DHT22;4379;59.744;18.206;2023-09-19T10:38:25;19.20;99.90
8684;DHT22;4379;59.744;18.206;2023-09-19T10:40:55;19.30;99.90
8684;DHT22;4379;59.744;18.206;2023-09-19T10:43:30;19.30;99.90
8684;DHT22;4379;59.744;18.206;2023-09-19T10:46:07;19.50;99.90
8684;DHT22;4379;59.744;18.206;2023-09-19T10:48:36;19.60;99.90
8684;DHT22;4379;59.744;18.206;2023-09-19T10:51:22;19.70;99.90
8684;DHT22;4379;59.744;18.206;2023-09-19T10:53:55;20.20;99.90
8684;DHT22;4379;59.744;18.206;2023-09-19T10:56:31;20.20;99.90
8684;DHT22;4379;59.744;18.206;2023-09-19T10:59:07;20.20;99.90
8684;DHT22;4379;59.744;18.206;2023-09-19T11:01:50;20.20;99.90
8684;DHT22;4379;59.744;18.206;2023-09-19T11:04:34;20.10;99.90
8684;DHT22;4379;59.744;18.206;2023-09-19T11:07:07;20.00;99.90
8684;DHT22;4379;59.744;18.206;2023-09-19T11:14:59;19.50;99.90
8684;DHT22;4379;59.744;18.206;2023-09-19T11:17:34;19.60;99.90
8684;DHT22;4379;59.744;18.206;2023-09-19T11:25:45;19.80;99.90
8684;DHT22;4379;59.744;18.206;2023-09-19T11:28:28;19.60;99.90
8684;DHT22;4379;59.744;18.206;2023-09-19T11:30:58;19.30;99.90
8684;DHT22;4379;59.744;18.206;2023-09-19T11:33:27;19.50;99.90
8684;DHT22;4379;59.744;18.206;2023-09-19T11:36:00;19.40;99.90
8684;DHT22;4379;59.744;18.206;2023-09-19T11:41:51;19.30;99.90
8684;DHT22;4379;59.744;18.206;2023-09-19T11:44:33;18.90;99.90
8684;DHT22;4379;59.744;18.206;2023-09-19T11:47:02;18.60;99.90
8684;DHT22;4379;59.744;18.206;2023-09-19T11:49:32;18.50;99.90
8684;DHT22;4379;59.744;18.206;2023-09-19T11:52:01;18.60;99.90
8684;DHT22;4379;59.744;18.206;2023-09-19T11:54:32;18.60;99.90
8684;DHT22;4379;59.744;18.206;2023-09-19T11:57:00;18.60;99.90
8684;DHT22;4379;59.744;18.206;2023-09-19T11:59:29;18.60;99.90
8684;DHT22;4379;59.744;18.206;2023-09-19T12:02:07;18.50;99.90
8684;DHT22;4379;59.744;18.206;2023-09-19T12:04:39;18.40;99.90
8684;DHT22;4379;59.744;18.206;2023-09-19T12:07:11;18.40;99.90
8684;DHT22;4379;59.744;18.206;2023-09-19T12:09:50;18.50;99.90
8684;DHT22;4379;59.744;18.206;2023-09-19T12:12:29;18.50;99.90
8684;DHT22;4379;59.744;18.206;2023-09-19T12:15:00;18.50;99.90
8684;DHT22;4379;59.744;18.206;2023-09-19T12:17:37;18.40;99.90
8684;DHT22;4379;59.744;18.206;2023-09-19T12:20:06;18.50;99.90
8684;DHT22;4379;59.744;18.206;2023-09-19T12:22:44;18.60;99.90
8684;DHT22;4379;59.744;18.206;2023-09-19T12:25:16;18.90;99.90
8684;DHT22;4379;59.744;18.206;2023-09-19T12:27:49;18.90;99.90
8684;DHT22;4379;59.744;18.206;2023-09-19T12:30:20;18.90;99.90
8684;DHT22;4379;59.744;18.206;2023-09-19T12:32:54;19.10;99.90
8684;DHT22;4379;59.744;18.206;2023-09-19T12:35:32;18.90;99.90
8684;DHT22;4379;59.744;18.206;2023-09-19T12:38:03;19.00;99.90
8684;DHT22;4379;59.744;18.206;2023-09-19T12:40:32;18.80;99.90
8684;DHT22;4379;59.744;18.206;2023-09-19T12:43:01;18.80;99.90
8684;DHT22;4379;59.744;18.206;2023-09-19T12:45:32;18.70;99.90
8684;DHT22;4379;59.744;18.206;2023-09-19T12:48:24;18.80;99.90
8684;DHT22;4379;59.744;18.206;2023-09-19T12:51:10;19.00;99.90
8684;DHT22;4379;59.744;18.206;2023-09-19T12:53:43;19.10;99.90
8684;DHT22;4379;59.744;18.206;2023-09-19T12:56:17;19.20;99.90
8684;DHT22;4379;59.744;18.206;2023-09-19T12:59:03;19.30;99.90
8684;DHT22;4379;59.744;18.206;2023-09-19T13:01:34;19.30;99.90
8684;DHT22;4379;59.744;18.206;2023-09-19T13:04:17;19.20;99.90
8684;DHT22;4379;59.744;18.206;2023-09-19T13:06:51;19.10;99.90
8684;DHT22;4379;59.744;18.206;2023-09-19T13:09:20;18.80;99.90
8684;DHT22;4379;59.744;18.206;2023-09-19T13:11:48;18.40;99.90
8684;DHT22;4379;59.744;18.206;2023-09-19T13:14:20;18.30;99.90
8684;DHT22;4379;59.744;18.206;2023-09-19T13:17:02;18.10;99.90
8684;DHT22;4379;59.744;18.206;2023-09-19T13:19:51;17.80;99.90
8684;DHT22;4379;59.744;18.206;2023-09-19T13:25:08;17.60;99.90
8684;DHT22;4379;59.744;18.206;2023-09-19T13:27:42;17.60;99.90
8684;DHT22;4379;59.744;18.206;2023-09-19T13:30:12;17.70;99.90
8684;DHT22;4379;59.744;18.206;2023-09-19T13:32:41;17.70;99.90
8684;DHT22;4379;59.744;18.206;2023-09-19T13:35:10;17.80;99.90
8684;DHT22;4379;59.744;18.206;2023-09-19T13:37:41;17.80;99.90
8684;DHT22;4379;59.744;18.206;2023-09-19T13:40:13;17.90;99.90
8684;DHT22;4379;59.744;18.206;2023-09-19T13:42:41;18.10;99.90
8684;DHT22;4379;59.744;18.206;2023-09-19T13:45:09;17.90;99.90
8684;DHT22;4379;59.744;18.206;2023-09-19T13:47:43;18.00;99.90
8684;DHT22;4379;59.744;18.206;2023-09-19T13:50:11;17.90;99.90
8684;DHT22;4379;59.744;18.206;2023-09-19T13:52:40;17.90;99.90
8684;DHT22;4379;59.744;18.206;2023-09-19T13:55:07;17.70;99.90
8684;DHT22;4379;59.744;18.206;2023-09-19T13:57:35;17.70;99.90
8684;DHT22;4379;59.744;18.206;2023-09-19T14:00:03;17.70;99.90
8684;DHT22;4379;59.744;18.206;2023-09-19T14:02:32;17.70;99.90
8684;DHT22;4379;59.744;18.206;2023-09-19T14:04:59;17.50;99.90
8684;DHT22;4379;59.744;18.206;2023-09-19T14:07:27;17.50;99.90
8684;DHT22;4379;59.744;18.206;2023-09-19T14:09:55;17.50;99.90
8684;DHT22;4379;59.744;18.206;2023-09-19T14:12:22;17.50;99.90
8684;DHT22;4379;59.744;18.206;2023-09-19T14:14:49;17.50;99.90
8684;DHT22;4379;59.744;18.206;2023-09-19T14:17:18;17.40;99.90
8684;DHT22;4379;59.744;18.206;2023-09-19T14:19:46;17.60;99.90
8684;DHT22;4379;59.744;18.206;2023-09-19T14:22:13;17.40;99.90
8684;DHT22;4379;59.744;18.206;2023-09-19T14:24:41;17.30;99.90
8684;DHT22;4379;59.744;18.206;2023-09-19T14:27:09;17.20;99.90
8684;DHT22;4379;59.744;18.206;2023-09-19T14:29:36;17.00;99.90
8684;DHT22;4379;59.744;18.206;2023-09-19T14:32:04;16.80;99.90
8684;DHT22;4379;59.744;18.206;2023-09-19T14:34:32;16.60;99.90
8684;DHT22;4379;59.744;18.206;2023-09-19T14:37:00;16.40;99.90
8684;DHT22;4379;59.744;18.206;2023-09-19T14:39:27;16.40;99.90
8684;DHT22;4379;59.744;18.206;2023-09-19T14:41:55;16.20;99.90
8684;DHT22;4379;59.744;18.206;2023-09-19T14:44:23;16.20;99.90
8684;DHT22;4379;59.744;18.206;2023-09-19T14:46:50;16.10;99.90
8684;DHT22;4379;59.744;18.206;2023-09-19T14:49:18;16.20;99.90
8684;DHT22;4379;59.744;18.206;2023-09-19T14:51:46;16.10;99.90
8684;DHT22;4379;59.744;18.206;2023-09-19T14:54:17;16.10;99.90
8684;DHT22;4379;59.744;18.206;2023-09-19T14:56:45;16.00;99.90
8684;DHT22;4379;59.744;18.206;2023-09-19T14:59:12;15.90;99.90
8684;DHT22;4379;59.744;18.206;2023-09-19T15:01:40;15.70;99.90
8684;DHT22;4379;59.744;18.206;2023-09-19T15:04:08;15.80;99.90
8684;DHT22;4379;59.744;18.206;2023-09-19T15:06:36;15.70;99.90
8684;DHT22;4379;59.744;18.206;2023-09-19T15:09:06;15.70;99.90
8684;DHT22;4379;59.744;18.206;2023-09-19T15:11:36;15.80;99.90
8684;DHT22;4379;59.744;18.206;2023-09-19T15:14:06;15.70;99.90
8684;DHT22;4379;59.744;18.206;2023-09-19T15:16:34;15.90;99.90
8684;DHT22;4379;59.744;18.206;2023-09-19T15:19:03;16.00;99.90
8684;DHT22;4379;59.744;18.206;2023-09-19T15:21:31;16.10;99.90
8684;DHT22;4379;59.744;18.206;2023-09-19T15:24:00;16.00;99.90
8684;DHT22;4379;59.744;18.206;2023-09-19T15:26:27;15.90;99.90
8684;DHT22;4379;59.744;18.206;2023-09-19T15:28:55;15.80;99.90
8684;DHT22;4379;59.744;18.206;2023-09-19T15:31:22;15.70;99.90
8684;DHT22;4379;59.744;18.206;2023-09-19T15:33:50;15.60;99.90
8684;DHT22;4379;59.744;18.206;2023-09-19T15:36:17;15.40;99.90
8684;DHT22;4379;59.744;18.206;2023-09-19T15:41:29;15.10;99.90
8684;DHT22;4379;59.744;18.206;2023-09-19T15:43:58;15.20;99.90
8684;DHT22;4379;59.744;18.206;2023-09-19T15:46:33;15.10;99.90
8684;DHT22;4379;59.744;18.206;2023-09-19T15:49:03;15.00;99.90
8684;DHT22;4379;59.744;18.206;2023-09-19T15:51:30;14.90;99.90
8684;DHT22;4379;59.744;18.206;2023-09-19T15:53:58;14.60;99.90
8684;DHT22;4379;59.744;18.206;2023-09-19T15:56:27;14.50;99.90
8684;DHT22;4379;59.744;18.206;2023-09-19T15:58:55;14.10;99.90
8684;DHT22;4379;59.744;18.206;2023-09-19T16:01:24;13.80;99.90
8684;DHT22;4379;59.744;18.206;2023-09-19T16:03:52;13.70;99.90
8684;DHT22;4379;59.744;18.206;2023-09-19T16:06:26;13.50;99.90
8684;DHT22;4379;59.744;18.206;2023-09-19T16:08:58;13.30;99.90
8684;DHT22;4379;59.744;18.206;2023-09-19T16:11:27;13.10;99.90
8684;DHT22;4379;59.744;18.206;2023-09-19T16:13:56;13.10;99.90
8684;DHT22;4379;59.744;18.206;2023-09-19T16:16:25;12.90;99.90
8684;DHT22;4379;59.744;18.206;2023-09-19T16:19:02;12.80;99.90
8684;DHT22;4379;59.744;18.206;2023-09-19T16:21:33;12.80;99.90
8684;DHT22;4379;59.744;18.206;2023-09-19T16:24:03;12.70;99.90
8684;DHT22;4379;59.744;18.206;2023-09-19T16:26:34;12.60;99.90
8684;DHT22;4379;59.744;18.206;2023-09-19T16:29:05;12.60;99.90
8684;DHT22;4379;59.744;18.206;2023-09-19T16:31:44;12.60;99.90
8684;DHT22;4379;59.744;18.206;2023-09-19T16:34:12;12.50;99.90
8684;DHT22;4379;59.744;18.206;2023-09-19T16:36:41;12.50;99.90
8684;DHT22;4379;59.744;18.206;2023-09-19T16:39:08;12.40;99.90
8684;DHT22;4379;59.744;18.206;2023-09-19T16:41:36;12.40;99.90
8684;DHT22;4379;59.744;18.206;2023-09-19T16:44:04;12.40;99.90
8684;DHT22;4379;59.744;18.206;2023-09-19T16:46:36;12.40;99.90